Golden Island — 3EVL8 — position and weather

sailwx.info

Track history (hours):
 
Tides and Currents Weather Stations Pressure Air Temp Water Temp Dewpoint Dewpoint Depression Visibility Wind Speed Wind Dir Waves Ship Positions

Golden Island

Last reported at 2017-Sep-02 04:31 UTC. Time now 2017-Sep-24 03:24 UTC.
Position N 35°58' W 132°43'.
Warning: this ship's position is 21 days out of date.

Length 189 m; draft 8.6 m.

Type: Ship. MMSI: 373492000.

Date/timePositionNaut miles runAvg speedWind from/ knotsBaromVisibWave heightAir tempDewpointWater temp
2017-Sep-02 04:31N 35°58' W 132°43'0 9.9
2017-Sep-02 04:30N 35°58' W 132°43'1310.3
2017-Sep-02 03:12N 36°04' W 132°58'910.3
2017-Sep-02 02:20N 36°08' W 133°08'310.5
2017-Sep-02 02:00N 36°10' W 133°12'1610.4
2017-Sep-02 00:24N 36°17' W 133°30'410.6
2017-Sep-02 00:00N 36°19' W 133°35'2110.8
2017-Sep-01 22:05N 36°29' W 133°58'110.8
2017-Sep-01 22:00N 36°29' W 133°59'611.0
2017-Sep-01 21:26N 36°32' W 134°06'511.1
2017-Sep-01 20:59N 36°34' W 134°12'611.1
2017-Sep-01 20:26N 36°37' W 134°18'511.1
2017-Sep-01 20:00N 36°39' W 134°24'611.4
2017-Sep-01 19:30N 36°42' W 134°30'611.2
2017-Sep-01 18:57N 36°44' W 134°37'1511.4
2017-Sep-01 17:41N 36°51' W 134°53'211.6
2017-Sep-01 17:28N 36°52' W 134°56'811.3
2017-Sep-01 16:43N 36°56' W 135°05'411.3
2017-Sep-01 16:23N 36°57' W 135°09'511.5
2017-Sep-01 15:56N 36°60' W 135°15'  
Track history (hours):
 
Tides and Currents Weather Stations Pressure Air Temp Water Temp Dewpoint Dewpoint Depression Visibility Wind Speed Wind Dir Waves Ship Positions

Golden Island

Last reported at 2017-Sep-02 04:31 UTC. Time now 2017-Sep-24 03:24 UTC.
Position N 35°58' W 132°43'.
Warning: this ship's position is 21 days out of date.

Length 189 m; draft 8.6 m.

Type: Ship. MMSI: 373492000.

Date/timePositionNaut miles runAvg speedWind from/ knotsBaromVisibWave heightAir tempDewpointWater temp
2017-Sep-02 04:31N 35°58' W 132°43'0 9.9
2017-Sep-02 04:30N 35°58' W 132°43'1310.3
2017-Sep-02 03:12N 36°04' W 132°58'910.3
2017-Sep-02 02:20N 36°08' W 133°08'310.5
2017-Sep-02 02:00N 36°10' W 133°12'1610.4
2017-Sep-02 00:24N 36°17' W 133°30'410.6
2017-Sep-02 00:00N 36°19' W 133°35'2110.8
2017-Sep-01 22:05N 36°29' W 133°58'110.8
2017-Sep-01 22:00N 36°29' W 133°59'611.0
2017-Sep-01 21:26N 36°32' W 134°06'511.1
2017-Sep-01 20:59N 36°34' W 134°12'611.1
2017-Sep-01 20:26N 36°37' W 134°18'511.1
2017-Sep-01 20:00N 36°39' W 134°24'611.4
2017-Sep-01 19:30N 36°42' W 134°30'611.2
2017-Sep-01 18:57N 36°44' W 134°37'1511.4
2017-Sep-01 17:41N 36°51' W 134°53'211.6
2017-Sep-01 17:28N 36°52' W 134°56'811.3
2017-Sep-01 16:43N 36°56' W 135°05'411.3
2017-Sep-01 16:23N 36°57' W 135°09'511.5
2017-Sep-01 15:56N 36°60' W 135°15'  

Dump ship's entire track history